Swansea, California
Current Conditions -  °F | °C
As of 5:56 AM on Monday 24 Nov 2014 (Local Time) from KBIH Reporting Station
Clear Clear  
Wind Chill: 18°   Ceiling: Unl
Heat Index: 25°   Visibility: 10mi
Dew Point:   Wind: 6mph
Humidity: 45%   Direction: 320°NW
Pressure: 30.36"   Gusts: NA
Location:  36.6126°N, 118.162°W
Report Text: KBIH 241356Z AUTO 32005KT 10SM CLR M04/M14 A3036 RMK AO2 SLP275 T10391144
Loading
Personal Weather Stations






























Interactive Weather Map New forecast layout! Learn more

10-Day Weather Forecast

Advertisements
Track Severe Weather on mobile